Time;durP1;ratioP1;P1;durP2;ratioP2;P2;SDS_P1;SDS_P2;PMS_P1;PMS_P2;Temp;Humidity;BMP_temperature;BMP_pressure;BME280_temperature;BME280_humidity;BME280_pressure;Samples;Min_cycle;Max_cycle;Signal;HPM_P1;HPM_P2
2023/06/17 00:01:02;;;;;;;15.65;6.88;;;;;;;31.70;22.39;98937.59;5076699;28;20044;-68
2023/06/17 00:03:28;;;;;;;20.35;9.40;;;;;;;31.69;22.52;98938.72;5093020;28;20078;-68
2023/06/17 00:05:54;;;;;;;13.85;6.78;;;;;;;31.56;22.99;98940.41;5095016;28;20043;-68
2023/06/17 00:08:20;;;;;;;12.40;6.22;;;;;;;31.57;23.02;98946.72;5093699;28;20040;-69
2023/06/17 00:10:46;;;;;;;12.07;6.30;;;;;;;31.42;23.28;98939.63;5076282;28;20044;-68
2023/06/17 00:13:18;;;;;;;16.42;6.10;;;;;;;31.35;23.21;98927.47;5092975;28;20051;-78
2023/06/17 00:15:47;;;;;;;14.23;6.75;;;;;;;31.47;22.96;98942.28;5092836;28;20115;-68
2023/06/17 00:18:14;;;;;;;14.07;6.30;;;;;;;31.38;23.00;98932.34;5093636;28;20048;-69
2023/06/17 00:20:40;;;;;;;19.02;6.75;;;;;;;31.29;22.85;98931.41;5076045;28;20040;-68
2023/06/17 00:23:06;;;;;;;11.98;6.47;;;;;;;31.37;22.89;98938.97;5075544;28;20047;-68
2023/06/17 00:25:32;;;;;;;13.40;6.38;;;;;;;31.27;23.04;98942.72;5093352;28;20044;-67
2023/06/17 00:27:58;;;;;;;16.02;6.25;;;;;;;31.27;23.08;98947.38;5076977;28;20105;-67
2023/06/17 00:30:24;;;;;;;14.70;6.38;;;;;;;31.35;22.96;98952.16;5075729;28;20475;-68
2023/06/17 00:32:50;;;;;;;13.57;6.03;;;;;;;31.25;23.14;98950.44;5093299;28;20093;-70
2023/06/17 00:35:15;;;;;;;16.17;6.78;;;;;;;31.28;22.85;98932.53;5075674;28;20040;-68
2023/06/17 00:37:41;;;;;;;15.73;6.13;;;;;;;31.35;22.77;98955.72;5076079;28;20080;-69
2023/06/17 00:40:09;;;;;;;14.00;6.93;;;;;;;31.32;22.90;98961.84;5058931;28;20482;-67
2023/06/17 00:42:36;;;;;;;12.15;5.90;;;;;;;31.14;23.28;98951.78;5075709;28;20080;-68
2023/06/17 00:45:03;;;;;;;15.52;6.28;;;;;;;31.21;23.32;98965.06;5058832;28;20044;-68
2023/06/17 00:47:30;;;;;;;16.05;6.05;;;;;;;31.12;23.28;98952.09;5092320;28;20040;-68
2023/06/17 00:49:56;;;;;;;14.13;6.45;;;;;;;31.17;23.37;98960.22;5058687;28;20054;-68
2023/06/17 00:52:23;;;;;;;12.48;6.30;;;;;;;31.20;23.59;98956.03;5074985;28;20044;-68
2023/06/17 00:54:50;;;;;;;10.25;6.00;;;;;;;31.10;23.64;98964.50;5092275;28;20164;-68
2023/06/17 00:57:17;;;;;;;15.00;6.50;;;;;;;30.92;23.53;98951.72;5092026;28;20047;-68
2023/06/17 00:59:44;;;;;;;12.27;6.18;;;;;;;31.08;23.72;98961.25;5092338;28;20436;-68
2023/06/17 01:02:11;;;;;;;11.80;6.40;;;;;;;31.14;23.58;98962.75;5075227;28;20044;-68
2023/06/17 01:04:40;;;;;;;17.17;6.38;;;;;;;31.12;23.47;98954.03;5058573;28;20645;-67
2023/06/17 01:07:23;;;;;;;14.60;6.50;;;;;;;31.19;23.60;98962.66;5075397;28;20043;-68
2023/06/17 01:09:56;;;;;;;14.27;6.15;;;;;;;31.16;23.77;98955.03;5074997;28;20051;-68
2023/06/17 01:12:26;;;;;;;12.73;6.35;;;;;;;31.13;23.56;98964.69;5042048;28;20059;-68
2023/06/17 01:14:54;;;;;;;12.25;6.38;;;;;;;31.09;23.96;98962.88;5091906;28;20055;-69
2023/06/17 01:17:20;;;;;;;12.95;5.95;;;;;;;30.94;23.90;98961.25;5074320;28;20040;-71
2023/06/17 01:19:48;;;;;;;17.17;6.75;;;;;;;31.00;23.92;98959.22;5074531;28;20386;-71
2023/06/17 01:22:16;;;;;;;18.77;6.88;;;;;;;31.11;24.00;98966.94;5085542;28;20391;-68
2023/06/17 01:24:45;;;;;;;16.75;6.47;;;;;;;31.02;24.14;98962.47;5071643;28;20438;-68
2023/06/17 01:27:11;;;;;;;15.82;6.63;;;;;;;30.92;24.35;98973.66;5039322;28;20043;-68
2023/06/17 01:29:37;;;;;;;18.05;6.88;;;;;;;30.90;24.00;98971.22;5070422;28;20123;-68
2023/06/17 01:32:05;;;;;;;14.85;6.20;;;;;;;30.85;24.36;98963.09;5037706;28;20412;-68
2023/06/17 01:34:44;;;;;;;20.45;7.50;;;;;;;31.07;24.10;98959.63;5053374;28;20040;-68
2023/06/17 01:37:13;;;;;;;12.10;6.65;;;;;;;30.97;24.20;98962.56;5070080;28;20085;-68
2023/06/17 01:39:44;;;;;;;28.25;8.65;;;;;;;31.10;24.54;98964.50;5054325;28;20166;-70
2023/06/17 01:42:17;;;;;;;16.23;6.55;;;;;;;31.09;23.97;98969.16;5038407;28;20044;-68
2023/06/17 01:44:46;;;;;;;18.85;6.55;;;;;;;30.99;24.27;98968.56;5037743;28;20102;-68
2023/06/17 01:47:12;;;;;;;14.23;6.43;;;;;;;30.78;24.24;98967.38;5049546;28;20044;-69
2023/06/17 01:49:38;;;;;;;15.00;6.47;;;;;;;30.86;24.18;98974.91;5021550;28;20094;-68
2023/06/17 01:52:06;;;;;;;13.13;6.97;;;;;;;30.91;24.35;98964.63;5053931;28;20054;-68
2023/06/17 01:54:33;;;;;;;12.43;6.55;;;;;;;30.84;24.28;98971.63;5087315;28;20102;-68
2023/06/17 01:57:01;;;;;;;17.52;7.25;;;;;;;30.82;24.27;98977.44;5070844;28;20044;-71
2023/06/17 01:59:28;;;;;;;19.10;7.07;;;;;;;30.92;24.16;98963.50;5037385;28;20032;-68
2023/06/17 02:01:54;;;;;;;17.45;6.78;;;;;;;30.73;24.21;98960.03;5036572;28;20146;-68
2023/06/17 02:04:20;;;;;;;19.35;6.70;;;;;;;30.72;24.33;98966.63;5052633;28;20044;-68
2023/06/17 02:06:46;;;;;;;16.65;6.50;;;;;;;30.80;24.23;98971.44;5070770;28;20044;-74
2023/06/17 02:09:13;;;;;;;14.15;6.60;;;;;;;30.82;24.48;98968.38;5038287;28;20487;-71
2023/06/17 02:11:40;;;;;;;20.27;6.85;;;;;;;30.81;24.33;98970.34;5054303;28;20559;-68
2023/06/17 02:14:06;;;;;;;20.27;6.65;;;;;;;30.87;24.23;98973.75;5037200;28;20156;-67
2023/06/17 02:16:32;;;;;;;15.30;6.53;;;;;;;30.95;23.94;98973.06;5040445;28;20037;-68
2023/06/17 02:18:58;;;;;;;18.35;7.18;;;;;;;30.91;24.13;98972.03;5029982;28;20507;-77
2023/06/17 02:21:24;;;;;;;14.75;6.68;;;;;;;30.97;24.18;98970.78;5044915;28;20041;-70
2023/06/17 02:23:50;;;;;;;14.77;5.97;;;;;;;30.99;24.19;98963.09;5055237;28;20469;-68
2023/06/17 02:26:16;;;;;;;14.23;6.38;;;;;;;31.00;24.34;98968.25;5089583;28;20048;-68
2023/06/17 02:28:42;;;;;;;19.00;6.70;;;;;;;31.11;24.25;98971.59;5055312;28;20369;-67
2023/06/17 02:31:09;;;;;;;18.40;7.20;;;;;;;31.09;24.07;98971.09;5092254;28;20040;-69
2023/06/17 02:33:35;;;;;;;18.05;7.07;;;;;;;31.08;24.10;98972.22;5057672;28;20189;-69
2023/06/17 02:36:01;;;;;;;15.70;7.43;;;;;;;31.10;24.06;98972.72;5073041;28;20130;-69
2023/06/17 02:38:28;;;;;;;19.38;7.07;;;;;;;31.11;24.27;98988.06;5084684;28;20040;-70
2023/06/17 02:40:55;;;;;;;22.38;7.30;;;;;;;31.11;24.22;98986.13;5050192;28;20045;-68
2023/06/17 02:43:21;;;;;;;21.10;7.65;;;;;;;31.10;24.34;98975.47;5066138;28;20475;-71
2023/06/17 02:45:47;;;;;;;13.05;7.40;;;;;;;31.19;24.39;98976.38;5069414;28;20460;-69
2023/06/17 02:48:12;;;;;;;17.65;7.93;;;;;;;31.26;24.37;98979.47;5066238;28;20131;-71
2023/06/17 02:50:38;;;;;;;21.15;7.35;;;;;;;31.30;24.39;98983.28;5063965;28;20047;-69
2023/06/17 02:53:07;;;;;;;15.95;7.63;;;;;;;31.29;24.76;98983.56;5050141;28;20065;-68
2023/06/17 02:55:33;;;;;;;17.73;7.85;;;;;;;31.36;24.30;98990.28;5085102;28;20065;-69
2023/06/17 02:58:06;;;;;;;20.83;7.55;;;;;;;31.38;24.18;98990.78;5071883;28;20508;-69
2023/06/17 03:00:40;;;;;;;23.05;7.70;;;;;;;31.32;24.35;98983.81;5066020;28;20090;-68
2023/06/17 03:03:06;;;;;;;24.10;9.05;;;;;;;31.51;24.22;98994.59;5043001;28;20110;-68
2023/06/17 03:05:32;;;;;;;18.63;8.20;;;;;;;31.60;24.07;98988.06;5067343;28;20055;-69
2023/06/17 03:07:59;;;;;;;19.55;8.18;;;;;;;31.55;24.00;98988.22;5059037;28;20032;-70
2023/06/17 03:10:25;;;;;;;11.90;8.02;;;;;;;31.67;24.24;98987.63;5067979;28;20063;-70
2023/06/17 03:13:01;;;;;;;18.60;7.70;;;;;;;31.81;23.99;98991.97;5052430;28;20455;-71
2023/06/17 03:15:27;;;;;;;12.45;6.65;;;;;;;31.94;24.09;98985.63;5067366;28;20044;-70
2023/06/17 03:17:55;;;;;;;21.70;7.78;;;;;;;31.93;24.10;98995.00;5032107;28;20471;-72
2023/06/17 03:20:28;;;;;;;17.30;7.00;;;;;;;31.99;23.71;98993.75;5050283;28;20036;-69
2023/06/17 03:22:55;;;;;;;20.55;6.72;;;;;;;32.10;23.67;98995.13;5051509;28;20052;-71
2023/06/17 03:25:22;;;;;;;19.38;8.10;;;;;;;32.35;23.50;98999.13;5052099;28;20090;-68
2023/06/17 03:27:51;;;;;;;22.67;8.55;;;;;;;32.32;23.12;98997.81;5069848;28;20040;-67
2023/06/17 03:30:17;;;;;;;16.70;7.18;;;;;;;32.42;23.29;99005.84;5082692;28;20036;-68
2023/06/17 03:32:44;;;;;;;16.70;7.53;;;;;;;32.47;22.93;98996.63;5050478;28;20130;-69
2023/06/17 03:35:11;;;;;;;12.48;6.32;;;;;;;32.46;22.85;98998.56;5060616;28;20070;-69
2023/06/17 03:37:37;;;;;;;14.52;6.60;;;;;;;32.52;22.66;99002.81;5057163;28;20097;-69
2023/06/17 03:40:05;;;;;;;18.55;6.70;;;;;;;32.59;22.89;99000.41;5084179;28;20464;-69
2023/06/17 03:42:34;;;;;;;11.25;6.15;;;;;;;32.54;22.49;98996.97;5039433;28;20043;-68
2023/06/17 03:45:00;;;;;;;13.15;6.05;;;;;;;32.57;22.35;98996.34;5074036;28;20044;-68
2023/06/17 03:47:31;;;;;;;23.77;6.65;;;;;;;32.52;22.22;98989.06;5061925;28;20104;-67
2023/06/17 03:49:58;;;;;;;15.15;5.40;;;;;;;32.47;22.50;98996.63;5067287;28;20102;-73
2023/06/17 03:52:25;;;;;;;16.33;6.07;;;;;;;32.69;22.31;98991.88;5049925;28;20032;-68
2023/06/17 03:54:51;;;;;;;13.30;5.47;;;;;;;32.68;22.15;98990.25;5049789;28;20036;-70
2023/06/17 03:57:17;;;;;;;15.90;5.90;;;;;;;32.81;21.96;98991.28;5044950;28;20136;-68
2023/06/17 03:59:44;;;;;;;10.30;5.65;;;;;;;32.59;22.01;98997.66;5055887;28;20075;-71
2023/06/17 04:02:11;;;;;;;12.93;5.18;;;;;;;32.66;22.36;99000.75;5076573;28;20067;-70
2023/06/17 04:04:38;;;;;;;11.88;5.00;;;;;;;32.85;21.89;98996.94;5076326;28;20050;-69
2023/06/17 04:07:06;;;;;;;14.48;5.93;;;;;;;32.90;21.90;99007.84;5059756;28;20055;-69
2023/06/17 04:09:33;;;;;;;10.75;5.60;;;;;;;33.05;21.45;98999.13;5060344;28;20040;-69
2023/06/17 04:12:00;;;;;;;10.32;5.70;;;;;;;32.98;21.48;99007.06;5043350;28;20036;-71
2023/06/17 04:14:26;;;;;;;9.82;5.38;;;;;;;33.06;21.95;99003.53;5061497;28;20082;-70
2023/06/17 04:16:51;;;;;;;12.52;5.45;;;;;;;33.00;21.54;99000.09;5095920;28;20079;-72
2023/06/17 04:19:18;;;;;;;13.07;5.70;;;;;;;33.10;21.22;99004.50;5038818;28;20475;-69
2023/06/17 04:21:44;;;;;;;9.27;5.47;;;;;;;33.07;21.56;98989.44;5039480;28;20098;-71
2023/06/17 04:24:10;;;;;;;16.48;5.90;;;;;;;33.17;21.60;99008.41;5055781;28;20067;-70
2023/06/17 04:26:36;;;;;;;19.40;5.40;;;;;;;33.23;21.38;99017.34;5022873;28;20143;-70
2023/06/17 04:29:03;;;;;;;9.98;5.20;;;;;;;33.13;21.46;99006.59;5022750;28;20430;-70
2023/06/17 04:31:29;;;;;;;15.52;6.28;;;;;;;33.36;21.50;99008.94;5028628;28;20032;-70
2023/06/17 04:33:55;;;;;;;18.98;5.70;;;;;;;33.39;21.18;99022.09;5042830;28;20456;-70
2023/06/17 04:36:24;;;;;;;14.18;5.68;;;;;;;33.45;21.19;99019.97;5059161;28;20415;-81
2023/06/17 04:38:53;;;;;;;8.98;5.32;;;;;;;33.58;21.04;99019.81;5076560;28;20044;-70
2023/06/17 04:41:20;;;;;;;18.33;5.53;;;;;;;33.70;21.14;99021.94;5021820;28;20044;-69
2023/06/17 04:43:48;;;;;;;12.00;5.40;;;;;;;33.54;21.54;99023.53;5021628;28;20452;-70
2023/06/17 04:46:18;;;;;;;10.73;5.38;;;;;;;33.78;20.90;99029.41;5054466;28;20067;-69
2023/06/17 04:48:44;;;;;;;14.70;5.50;;;;;;;33.87;21.05;99027.47;5005445;28;20078;-72
2023/06/17 04:51:12;;;;;;;10.60;5.25;;;;;;;33.85;20.93;99024.22;5037536;28;20130;-70
2023/06/17 04:53:40;;;;;;;12.52;5.50;;;;;;;34.10;20.94;99035.25;5049911;28;20539;-71
2023/06/17 04:56:07;;;;;;;14.73;5.25;;;;;;;34.10;20.58;99037.22;5027362;28;20516;-73
2023/06/17 04:58:34;;;;;;;13.57;5.47;;;;;;;33.96;20.89;99042.91;5028901;28;20409;-75
2023/06/17 05:01:13;;;;;;;16.30;5.63;;;;;;;34.05;20.59;99037.38;5020233;28;20071;-69
2023/06/17 05:03:39;;;;;;;11.80;5.53;;;;;;;34.17;20.50;99032.81;5020215;28;20049;-71
2023/06/17 05:06:06;;;;;;;13.55;5.53;;;;;;;34.33;20.36;99040.56;5036515;28;20041;-70
2023/06/17 05:08:32;;;;;;;13.48;5.38;;;;;;;34.40;20.14;99046.44;5029309;28;20054;-70
2023/06/17 05:10:59;;;;;;;13.93;5.57;;;;;;;34.45;20.06;99051.75;5043533;28;20072;-74
2023/06/17 05:13:26;;;;;;;9.07;4.95;;;;;;;34.54;19.82;99042.31;5063097;28;20106;-74
2023/06/17 05:15:54;;;;;;;12.65;5.20;;;;;;;34.45;19.21;99043.47;5048343;28;20039;-75
2023/06/17 05:18:20;;;;;;;10.65;5.10;;;;;;;34.56;18.99;99045.56;5030639;28;20391;-68
2023/06/17 05:20:47;;;;;;;11.55;4.60;;;;;;;34.64;18.59;99042.00;5079996;28;20063;-70
2023/06/17 05:23:22;;;;;;;10.65;4.60;;;;;;;34.66;18.93;99047.19;5040810;28;20036;-69
2023/06/17 05:25:50;;;;;;;11.85;4.97;;;;;;;34.54;18.56;99042.31;5071314;28;20090;-71
2023/06/17 05:28:16;;;;;;;10.68;4.70;;;;;;;34.62;18.90;99048.94;5038018;28;20068;-71
2023/06/17 05:30:43;;;;;;;13.90;5.18;;;;;;;34.76;18.88;99044.88;5055006;28;20045;-72
2023/06/17 05:33:13;;;;;;;11.93;5.05;;;;;;;34.94;18.96;99049.19;5071403;28;20048;-69
2023/06/17 05:35:39;;;;;;;13.98;5.15;;;;;;;35.11;19.44;99040.84;5038173;28;20090;-69
2023/06/17 05:38:05;;;;;;;8.52;4.85;;;;;;;35.10;18.89;99044.75;5042827;28;20060;-71
2023/06/17 05:40:32;;;;;;;8.23;5.22;;;;;;;35.20;18.82;99026.97;5046783;28;20048;-72
2023/06/17 05:42:59;;;;;;;12.93;5.22;;;;;;;35.31;18.90;99042.81;5067350;28;20040;-76
2023/06/17 05:45:26;;;;;;;10.85;5.05;;;;;;;35.29;18.92;99041.56;5038049;28;20074;-68
2023/06/17 05:47:52;;;;;;;10.73;4.82;;;;;;;35.39;18.69;99044.75;5034047;28;20395;-68
2023/06/17 05:50:18;;;;;;;10.13;4.80;;;;;;;35.53;17.93;99053.63;5031402;28;20051;-68
2023/06/17 05:52:45;;;;;;;11.40;4.97;;;;;;;35.72;17.85;99051.19;5061794;28;20100;-71
2023/06/17 05:55:11;;;;;;;13.07;6.03;;;;;;;35.89;18.11;99049.47;5045208;28;20249;-72
2023/06/17 05:57:45;;;;;;;12.43;5.60;;;;;;;35.94;17.75;99050.06;5077612;28;20095;-71
2023/06/17 06:00:14;;;;;;;10.95;5.00;;;;;;;36.07;17.73;99053.69;5079378;28;20040;-69
2023/06/17 06:02:41;;;;;;;39.60;15.70;;;;;;;36.09;18.27;99037.59;5035685;28;20052;-73
2023/06/17 06:05:10;;;;;;;22.88;10.55;;;;;;;36.04;18.02;99048.84;5038023;28;20483;-73
2023/06/17 06:07:43;;;;;;;28.67;10.45;;;;;;;35.93;17.23;99044.88;5055389;28;20044;-72
2023/06/17 06:10:20;;;;;;;20.50;8.80;;;;;;;35.83;17.92;99039.75;5028437;28;20048;-72
2023/06/17 06:12:52;;;;;;;23.23;9.95;;;;;;;35.73;17.89;99040.94;5027638;28;20045;-74
2023/06/17 06:15:18;;;;;;;16.35;7.40;;;;;;;35.73;16.49;99040.94;4992760;28;20084;-73
2023/06/17 06:17:44;;;;;;;17.60;6.88;;;;;;;35.67;16.86;99032.03;4999322;28;20080;-70
2023/06/17 06:20:12;;;;;;;27.80;10.52;;;;;;;35.58;16.35;99039.56;5010912;28;20040;-73
2023/06/17 06:22:38;;;;;;;8.27;4.53;;;;;;;35.56;14.35;99036.38;5017668;28;20049;-73
2023/06/17 06:25:05;;;;;;;14.73;6.10;;;;;;;35.59;15.25;99035.69;5000090;28;20069;-74
2023/06/17 06:27:34;;;;;;;20.40;7.45;;;;;;;35.58;15.82;99019.44;5026383;28;20048;-73
2023/06/17 06:30:01;;;;;;;11.93;5.95;;;;;;;35.71;15.45;99032.16;5041421;28;20110;-74
2023/06/17 06:32:31;;;;;;;20.50;7.07;;;;;;;35.75;15.15;99028.41;5011226;28;20501;-73
2023/06/17 06:34:58;;;;;;;19.85;5.30;;;;;;;35.83;15.19;99031.47;5033947;28;20085;-72
2023/06/17 06:37:26;;;;;;;15.80;7.10;;;;;;;35.97;15.68;99030.03;5020604;28;20044;-74
2023/06/17 06:39:52;;;;;;;16.80;6.10;;;;;;;36.06;15.56;99033.53;5021662;28;20055;-74
2023/06/17 06:42:20;;;;;;;13.80;5.05;;;;;;;36.21;15.24;99035.69;5049941;28;20521;-74
2023/06/17 06:44:51;;;;;;;11.27;4.90;;;;;;;36.34;14.99;99033.75;5036596;28;20040;-67
2023/06/17 06:47:19;;;;;;;13.73;5.43;;;;;;;36.50;15.30;99037.50;5008862;28;20063;-67
2023/06/17 06:49:45;;;;;;;14.63;5.70;;;;;;;36.57;14.84;99043.28;5053597;28;20063;-66
2023/06/17 06:52:12;;;;;;;7.40;4.57;;;;;;;36.63;14.59;99037.19;5072952;28;20424;-67
2023/06/17 06:54:38;;;;;;;8.65;4.22;;;;;;;36.72;14.19;99040.66;5034877;28;20086;-68
2023/06/17 06:57:05;;;;;;;11.23;5.53;;;;;;;36.87;14.66;99039.22;5033759;28;20044;-68
2023/06/17 06:59:32;;;;;;;18.52;6.78;;;;;;;37.05;14.54;99041.41;5032136;28;20052;-68
2023/06/17 07:01:58;;;;;;;20.60;9.77;;;;;;;37.24;15.33;99043.63;5047507;28;20060;-68
2023/06/17 07:04:25;;;;;;;12.38;5.57;;;;;;;37.36;13.68;99043.63;5033663;28;20036;-67
2023/06/17 07:06:58;;;;;;;12.25;5.07;;;;;;;37.56;13.41;99044.63;5052492;28;20053;-67
2023/06/17 07:09:29;;;;;;;11.07;5.35;;;;;;;37.68;13.20;99048.22;5036067;28;20067;-69
2023/06/17 07:11:55;;;;;;;13.45;5.55;;;;;;;37.87;13.54;99036.50;5053221;28;20079;-68
2023/06/17 07:14:21;;;;;;;5.88;4.40;;;;;;;38.04;12.72;99047.28;5021837;28;20041;-67
2023/06/17 07:16:49;;;;;;;7.20;4.93;;;;;;;38.28;12.83;99045.25;5039471;28;20051;-68
2023/06/17 07:19:15;;;;;;;14.75;5.65;;;;;;;38.52;12.80;99053.44;5059535;28;20080;-68
2023/06/17 07:21:41;;;;;;;10.15;5.20;;;;;;;38.94;12.69;99042.66;5026530;28;20479;-68
2023/06/17 07:24:07;;;;;;;8.48;5.25;;;;;;;39.38;12.35;99040.59;5076013;28;20143;-68
2023/06/17 07:26:33;;;;;;;13.57;6.65;;;;;;;39.97;12.43;99039.19;5026183;28;20066;-68
2023/06/17 07:29:02;;;;;;;16.40;6.13;;;;;;;40.42;11.56;99046.03;5075834;28;20056;-68
2023/06/17 07:31:31;;;;;;;12.98;5.00;;;;;;;41.01;11.14;99047.13;5043043;28;20490;-68
2023/06/17 07:33:57;;;;;;;8.40;5.63;;;;;;;41.77;10.92;99051.53;5059883;28;20452;-68
2023/06/17 07:36:23;;;;;;;9.38;5.20;;;;;;;42.53;10.17;99048.13;5059786;28;20048;-68
2023/06/17 07:38:50;;;;;;;13.00;7.15;;;;;;;43.22;10.34;99049.19;5042500;28;20064;-68
2023/06/17 07:41:16;;;;;;;7.60;3.60;;;;;;;43.71;9.00;99043.94;5042378;28;20036;-68
2023/06/17 07:43:42;;;;;;;13.60;5.80;;;;;;;45.37;8.61;99053.56;5042859;28;20036;-68
2023/06/17 07:46:08;;;;;;;10.68;5.55;;;;;;;47.47;7.29;99046.84;5042451;28;20059;-69
2023/06/17 07:48:34;;;;;;;7.88;4.90;;;;;;;49.18;6.21;99052.66;5042658;28;20498;-69
2023/06/17 07:51:01;;;;;;;11.75;4.40;;;;;;;50.32;5.51;99060.09;5023270;28;20078;-69
2023/06/17 07:53:26;;;;;;;10.82;5.07;;;;;;;52.04;4.99;99069.13;5023715;28;20364;-68
2023/06/17 07:55:53;;;;;;;8.50;5.80;;;;;;;53.69;4.48;99054.44;5039645;28;20047;-69
2023/06/17 07:58:19;;;;;;;9.13;5.50;;;;;;;55.51;3.84;99063.41;5073796;28;20048;-69
2023/06/17 08:00:45;;;;;;;7.32;4.10;;;;;;;56.83;2.90;99060.44;5073819;28;20045;-69
2023/06/17 08:03:12;;;;;;;7.55;3.42;;;;;;;57.43;2.63;99058.19;5023209;28;20135;-69
2023/06/17 08:05:38;;;;;;;5.97;4.03;;;;;;;57.50;2.30;99052.88;5056284;28;20082;-69
2023/06/17 08:08:04;;;;;;;6.63;3.45;;;;;;;56.26;2.65;99054.63;5039505;28;20041;-70
2023/06/17 08:10:32;;;;;;;8.27;3.08;;;;;;;54.52;3.09;99053.28;5056164;28;20075;-69
2023/06/17 08:12:58;;;;;;;5.35;3.50;;;;;;;51.95;4.59;99046.28;5039782;28;20048;-69
2023/06/17 08:15:24;;;;;;;7.65;3.95;;;;;;;50.20;5.09;99040.19;5023400;28;20047;-69
2023/06/17 08:17:50;;;;;;;5.35;3.40;;;;;;;48.81;5.40;99039.56;5056181;28;20049;-69
2023/06/17 08:20:16;;;;;;;9.25;3.63;;;;;;;48.00;6.06;99037.03;5072477;28;20471;-69
2023/06/17 08:22:42;;;;;;;7.25;3.25;;;;;;;46.81;6.63;99044.59;5039342;28;20047;-69
2023/06/17 08:25:10;;;;;;;6.68;3.50;;;;;;;46.06;7.14;99044.19;5039385;28;20075;-69
2023/06/17 08:27:37;;;;;;;10.23;4.00;;;;;;;45.97;7.44;99035.41;5039149;28;20250;-68
2023/06/17 08:30:03;;;;;;;5.20;3.30;;;;;;;47.53;6.88;99047.22;5055985;28;20139;-69
2023/06/17 08:32:33;;;;;;;7.43;3.80;;;;;;;48.78;5.93;99037.56;5056312;28;20094;-69
2023/06/17 08:35:06;;;;;;;9.32;3.50;;;;;;;50.27;5.58;99051.34;5072795;28;20056;-70
2023/06/17 08:37:33;;;;;;;4.50;3.20;;;;;;;52.05;4.22;99041.59;5024664;28;20143;-69
2023/06/17 08:40:00;;;;;;;7.82;3.70;;;;;;;53.77;3.76;99058.59;5056429;28;20044;-69
2023/06/17 08:42:29;;;;;;;4.10;3.15;;;;;;;55.44;3.50;99055.94;5039841;28;20076;-69
2023/06/17 08:44:58;;;;;;;6.28;3.17;;;;;;;56.60;2.79;99069.72;5055603;28;20139;-69
2023/06/17 08:47:24;;;;;;;5.90;3.13;;;;;;;57.44;2.47;99062.66;5055456;28;20102;-70
2023/06/17 08:49:53;;;;;;;7.10;3.50;;;;;;;58.24;2.32;99059.56;5055440;28;20044;-69
2023/06/17 08:52:19;;;;;;;6.40;3.40;;;;;;;58.87;2.02;99068.16;5021444;28;20500;-69
2023/06/17 08:54:47;;;;;;;3.55;2.60;;;;;;;59.76;1.62;99064.41;5055231;28;20471;-69
2023/06/17 08:57:14;;;;;;;7.50;3.00;;;;;;;60.23;1.48;99072.50;5038614;28;20086;-69
2023/06/17 08:59:41;;;;;;;5.65;3.33;;;;;;;59.72;1.25;99063.03;5071765;28;20055;-70
2023/06/17 09:02:07;;;;;;;6.07;3.03;;;;;;;59.26;1.84;99057.25;5036963;28;20498;-70
2023/06/17 09:04:34;;;;;;;4.43;2.83;;;;;;;57.90;1.92;99051.63;5004264;28;20052;-70
2023/06/17 09:07:00;;;;;;;6.38;3.08;;;;;;;57.51;2.13;99054.50;5037170;28;20052;-70
2023/06/17 09:09:26;;;;;;;4.57;2.92;;;;;;;58.02;2.23;99042.78;5053634;28;20041;-69
2023/06/17 09:11:52;;;;;;;9.10;3.15;;;;;;;58.32;1.81;99041.47;5070321;28;20061;-70
2023/06/17 09:14:21;;;;;;;6.38;3.08;;;;;;;58.35;1.97;99043.34;5053745;28;20402;-69
2023/06/17 09:16:49;;;;;;;4.97;2.88;;;;;;;58.31;1.87;99050.56;5005266;28;20077;-69
2023/06/17 09:19:15;;;;;;;4.07;2.77;;;;;;;58.50;2.04;99041.28;5037134;28;20474;-70
2023/06/17 09:21:41;;;;;;;4.25;2.72;;;;;;;57.76;2.12;99038.88;5053544;28;20278;-70
2023/06/17 09:24:10;;;;;;;8.07;3.55;;;;;;;56.36;2.67;99049.72;5020771;28;20066;-70
2023/06/17 09:26:41;;;;;;;6.68;3.13;;;;;;;56.21;2.54;99034.50;5004851;28;20356;-70
2023/06/17 09:29:12;;;;;;;7.95;3.00;;;;;;;54.30;3.40;99021.25;5054029;28;20345;-70
2023/06/17 09:31:52;;;;;;;8.43;3.42;;;;;;;52.24;4.17;99024.38;5053692;28;20056;-69
2023/06/17 09:34:21;;;;;;;4.65;3.33;;;;;;;50.87;4.49;99030.97;5072134;28;20084;-69
2023/06/17 09:36:54;;;;;;;8.57;3.25;;;;;;;51.47;4.37;99035.13;5021721;28;20493;-69
2023/06/17 09:39:29;;;;;;;11.73;3.65;;;;;;;52.63;4.28;99024.00;5054405;28;20372;-69
2023/06/17 09:41:57;;;;;;;4.00;3.22;;;;;;;53.79;3.30;99034.16;5037953;28;20395;-70
2023/06/17 09:44:26;;;;;;;7.30;4.30;;;;;;;55.18;2.76;99048.16;5056727;28;20491;-69
2023/06/17 09:46:52;;;;;;;6.13;3.28;;;;;;;56.62;2.34;99032.94;5073268;28;20143;-69
2023/06/17 09:49:23;;;;;;;3.75;2.95;;;;;;;58.13;1.66;99031.53;5057081;28;20071;-70
2023/06/17 09:51:51;;;;;;;5.97;3.13;;;;;;;59.22;1.29;99027.25;5040809;28;20159;-70
2023/06/17 09:54:19;;;;;;;3.92;3.00;;;;;;;60.26;1.13;99042.78;5057895;28;20140;-70
2023/06/17 09:56:46;;;;;;;7.35;3.17;;;;;;;60.90;0.75;99035.69;5073561;28;20129;-70
2023/06/17 09:59:12;;;;;;;4.38;2.78;;;;;;;61.42;0.51;99037.00;5073442;28;20063;-70
2023/06/17 10:01:39;;;;;;;8.10;3.42;;;;;;;61.92;0.31;99034.28;5023260;28;20047;-71
2023/06/17 10:04:08;;;;;;;6.80;2.92;;;;;;;61.49;0.61;99036.50;5056976;28;20080;-71
2023/06/17 10:06:38;;;;;;;10.60;3.65;;;;;;;59.75;1.18;99025.56;5040228;28;20135;-70
2023/06/17 10:09:08;;;;;;;6.65;3.08;;;;;;;57.23;1.95;99018.81;5057008;28;20048;-70
2023/06/17 10:11:35;;;;;;;4.13;2.92;;;;;;;55.24;2.89;99012.88;5057165;28;20044;-69
2023/06/17 10:14:10;;;;;;;7.25;3.38;;;;;;;54.64;3.05;99014.63;5057121;28;20094;-69
2023/06/17 10:16:41;;;;;;;7.03;3.42;;;;;;;55.02;3.11;99017.09;5022022;28;20047;-70
2023/06/17 10:19:09;;;;;;;8.15;3.63;;;;;;;54.36;3.17;99019.38;5021289;28;20119;-70
2023/06/17 10:21:40;;;;;;;4.97;3.33;;;;;;;53.05;3.33;99014.09;5038000;28;20139;-69
2023/06/17 10:24:07;;;;;;;7.28;4.13;;;;;;;51.58;3.97;99010.91;5054114;28;20076;-71
2023/06/17 10:26:33;;;;;;;9.35;4.00;;;;;;;50.05;5.08;99008.63;5037680;28;20055;-69
2023/06/17 10:29:06;;;;;;;5.85;3.80;;;;;;;48.86;6.00;99002.38;5054456;28;20040;-69
2023/06/17 10:31:39;;;;;;;6.47;3.90;;;;;;;47.99;6.38;99007.28;5055759;28;20151;-69
2023/06/17 10:34:10;;;;;;;4.55;3.60;;;;;;;47.31;6.66;99006.44;5071458;28;20060;-69
2023/06/17 10:36:36;;;;;;;7.15;4.10;;;;;;;46.89;6.68;99006.78;5054123;28;20049;-69
2023/06/17 10:39:04;;;;;;;7.07;3.92;;;;;;;47.58;6.55;98990.47;5021345;28;20036;-68
2023/06/17 10:41:39;;;;;;;6.18;3.90;;;;;;;49.31;5.62;99000.00;5054302;28;20040;-69
2023/06/17 10:44:23;;;;;;;9.80;4.45;;;;;;;49.86;5.50;99009.41;5054230;28;20106;-70
2023/06/17 10:46:50;;;;;;;5.25;3.97;;;;;;;50.17;5.42;99012.81;5070490;28;20063;-69
2023/06/17 10:49:17;;;;;;;8.60;3.80;;;;;;;50.72;5.07;99000.66;5037534;28;20052;-69
2023/06/17 10:51:47;;;;;;;7.70;3.60;;;;;;;50.94;4.78;99007.34;5022124;28;20059;-69
2023/06/17 10:54:14;;;;;;;6.72;3.90;;;;;;;51.28;4.56;99000.00;5090531;28;20064;-69
2023/06/17 10:56:52;;;;;;;4.93;3.72;;;;;;;52.18;4.59;98999.88;5040350;28;20056;-69
2023/06/17 10:59:30;;;;;;;6.05;3.78;;;;;;;51.73;4.87;99003.63;5023909;28;20087;-70
2023/06/17 11:02:03;;;;;;;9.10;3.78;;;;;;;48.86;5.89;98989.09;5056350;28;20052;-69
2023/06/17 11:04:31;;;;;;;5.95;4.03;;;;;;;48.35;6.75;98989.47;5040062;28;20036;-69
2023/06/17 11:06:59;;;;;;;11.68;4.63;;;;;;;47.79;6.68;98993.03;5056601;28;20053;-70
2023/06/17 11:09:25;;;;;;;8.00;3.88;;;;;;;47.00;7.16;98994.25;5023250;28;20242;-69
2023/06/17 11:11:53;;;;;;;7.40;4.03;;;;;;;46.72;7.41;99002.91;5039862;28;20468;-69
2023/06/17 11:14:21;;;;;;;8.00;4.20;;;;;;;46.12;7.90;98999.63;5073110;28;20044;-69
2023/06/17 11:16:48;;;;;;;6.55;4.20;;;;;;;46.03;7.42;99000.09;5056575;28;20056;-69
2023/06/17 11:19:14;;;;;;;9.75;4.60;;;;;;;45.58;7.93;99000.25;5040071;28;20131;-69
2023/06/17 11:21:41;;;;;;;7.65;5.07;;;;;;;44.85;8.31;99001.91;5057026;28;20135;-69
2023/06/17 11:24:09;;;;;;;7.63;4.47;;;;;;;43.82;8.81;98994.44;5042082;28;20044;-69
2023/06/17 11:26:36;;;;;;;12.73;4.55;;;;;;;42.61;9.60;98982.75;5024961;28;20044;-69
2023/06/17 11:29:03;;;;;;;14.02;4.65;;;;;;;42.02;10.23;98991.31;5057623;28;20187;-68
2023/06/17 11:31:38;;;;;;;9.32;4.55;;;;;;;42.78;9.86;98995.31;5057230;28;20936;-68
2023/06/17 11:34:06;;;;;;;7.55;4.72;;;;;;;43.23;9.77;98994.88;5040535;28;20139;-69